createdAt,value
2022-12-22T00:01:55.912Z,100289.19
2022-12-22T00:04:42.038Z,100295.09
2022-12-22T00:07:27.232Z,100290.72
2022-12-22T00:10:12.818Z,100296.66
2022-12-22T00:12:58.423Z,100285.41
2022-12-22T00:15:53.336Z,100286.25
2022-12-22T00:18:38.587Z,100254.56
2022-12-22T00:21:23.807Z,100293.94
2022-12-22T00:24:08.600Z,100286.28
2022-12-22T00:26:54.444Z,100287.91
2022-12-22T00:29:40.547Z,100287.03
2022-12-22T00:32:32.968Z,100268.13
2022-12-22T00:35:18.837Z,100273.28
2022-12-22T00:38:04.255Z,100280.97
2022-12-22T00:40:49.058Z,100256.16
2022-12-22T00:43:33.893Z,100272.47
2022-12-22T00:46:21.274Z,100280.25
2022-12-22T00:49:06.859Z,100234.81
2022-12-22T00:51:52.691Z,100268.13
2022-12-22T00:54:39.308Z,100237.38
2022-12-22T00:57:24.411Z,100269.88
2022-12-22T01:00:11.228Z,100262.94
2022-12-22T01:02:56.206Z,100264.69
2022-12-22T01:05:41.246Z,100261.22
2022-12-22T01:08:29.263Z,100266.34
2022-12-22T01:11:14.471Z,100256.94
2022-12-22T01:13:59.174Z,100270.72
2022-12-22T01:16:44.187Z,100239.03
2022-12-22T01:19:29.271Z,100232.22
2022-12-22T01:22:15.759Z,100268.31
2022-12-22T01:25:00.573Z,100282.97
2022-12-22T01:27:45.863Z,100270.16
2022-12-22T01:30:31.280Z,100263.34
2022-12-22T01:33:16.467Z,100278.91
2022-12-22T01:36:01.383Z,100279.03
2022-12-22T01:38:46.535Z,100267.00
2022-12-22T01:41:36.312Z,100273.94
2022-12-22T01:44:31.181Z,100265.44
2022-12-22T01:48:01.233Z,100286.09
2022-12-22T01:50:50.538Z,100279.38
2022-12-22T01:53:43.587Z,100289.69
2022-12-22T01:56:29.384Z,100297.50
2022-12-22T01:59:16.874Z,100296.66
2022-12-22T02:02:02.578Z,100303.53
2022-12-22T02:04:54.800Z,100299.38
2022-12-22T02:07:48.908Z,100303.69
2022-12-22T02:11:04.358Z,100329.56
2022-12-22T02:14:01.083Z,100309.88
2022-12-22T02:16:53.174Z,100322.75
2022-12-22T02:19:56.959Z,100329.69
2022-12-22T02:22:48.286Z,100313.31
2022-12-22T02:25:42.444Z,100305.59
2022-12-22T02:28:30.999Z,100260.25
2022-12-22T02:31:16.489Z,100276.53
2022-12-22T02:34:01.632Z,100302.28
2022-12-22T02:37:05.581Z,100316.03
2022-12-22T02:40:05.535Z,100316.09
2022-12-22T02:42:59.945Z,100282.66
2022-12-22T02:46:19.600Z,100309.25
2022-12-22T02:49:16.396Z,100309.31
2022-12-22T02:52:07.641Z,100309.41
2022-12-22T02:54:53.606Z,100328.38
2022-12-22T02:57:39.580Z,100337.84
2022-12-22T03:00:26.002Z,100328.44
2022-12-22T03:03:11.566Z,100350.75
2022-12-22T03:05:56.620Z,100369.66
2022-12-22T03:08:41.336Z,100342.13
2022-12-22T03:11:26.252Z,100337.78
2022-12-22T03:14:11.043Z,100319.72
2022-12-22T03:16:56.577Z,100351.47
2022-12-22T03:19:41.782Z,100359.22
2022-12-22T03:22:26.493Z,100367.69
2022-12-22T03:25:11.363Z,100365.91
2022-12-22T03:27:37.930Z,100373.56
2022-12-22T03:30:05.070Z,100384.66
2022-12-22T03:32:31.577Z,100396.63
2022-12-22T03:34:58.073Z,100382.84
2022-12-22T03:37:24.572Z,100387.94
2022-12-22T03:39:51.141Z,100419.34
2022-12-22T03:42:36.451Z,100410.47
2022-12-22T03:45:21.801Z,100398.31
2022-12-22T03:47:48.269Z,100418.91
2022-12-22T03:50:14.761Z,100415.41
2022-12-22T03:52:41.243Z,100414.41
2022-12-22T03:55:08.361Z,100422.06
2022-12-22T03:57:34.831Z,100420.34
2022-12-22T04:00:01.418Z,100421.19
2022-12-22T04:02:28.068Z,100414.41
2022-12-22T04:04:54.688Z,100427.19
2022-12-22T04:07:21.199Z,100401.44
2022-12-22T04:10:06.170Z,100425.31
2022-12-22T04:12:50.941Z,100399.56
2022-12-22T04:15:17.447Z,100407.19
2022-12-22T04:17:43.922Z,100407.09
2022-12-22T04:20:10.673Z,100407.09
2022-12-22T04:22:37.160Z,100372.81
2022-12-22T04:25:03.964Z,100415.66
2022-12-22T04:27:30.481Z,100416.53
2022-12-22T04:29:56.956Z,100409.69
2022-12-22T04:32:23.640Z,100420.03
2022-12-22T04:34:50.140Z,100420.94
2022-12-22T04:37:17.708Z,100414.03
2022-12-22T04:39:44.520Z,100427.66
2022-12-22T04:42:11.228Z,100423.38
2022-12-22T04:44:37.800Z,100431.06
2022-12-22T04:47:04.296Z,100410.53
2022-12-22T04:49:30.912Z,100422.56
2022-12-22T04:51:57.534Z,100413.94
2022-12-22T04:54:24.005Z,100425.16
2022-12-22T04:56:51.005Z,100416.56
2022-12-22T04:59:17.526Z,100434.69
2022-12-22T05:01:44.794Z,100421.00
2022-12-22T05:04:11.374Z,100438.13
2022-12-22T05:06:38.048Z,100405.56
2022-12-22T05:09:04.553Z,100411.63
2022-12-22T05:11:31.119Z,100427.81
2022-12-22T05:14:00.912Z,100426.94
2022-12-22T05:16:31.848Z,100403.84
2022-12-22T05:18:58.398Z,100439.94
2022-12-22T05:21:24.883Z,100402.22
2022-12-22T05:23:51.375Z,100403.91
2022-12-22T05:26:19.743Z,100406.38
2022-12-22T05:28:47.942Z,100429.56
2022-12-22T05:31:20.845Z,100422.72
2022-12-22T05:33:48.312Z,100421.81
2022-12-22T05:36:15.355Z,100427.91
2022-12-22T05:38:42.268Z,100431.34
2022-12-22T05:41:08.797Z,100413.34
2022-12-22T05:43:35.905Z,100403.97
2022-12-22T05:46:08.472Z,100424.50
2022-12-22T05:48:39.107Z,100391.97
2022-12-22T05:51:08.027Z,100417.63
2022-12-22T05:53:34.584Z,100384.09
2022-12-22T05:56:01.125Z,100389.22
2022-12-22T05:58:27.874Z,100402.22
2022-12-22T06:00:58.100Z,100388.63
2022-12-22T06:03:26.528Z,100421.25
2022-12-22T06:05:54.231Z,100456.53
2022-12-22T06:08:20.822Z,100435.97
2022-12-22T06:10:47.505Z,100447.94
2022-12-22T06:13:16.426Z,100423.94
2022-12-22T06:15:43.001Z,100447.03
2022-12-22T06:18:09.521Z,100432.44
2022-12-22T06:20:36.052Z,100418.81
2022-12-22T06:23:02.560Z,100458.97
2022-12-22T06:25:29.080Z,100450.34
2022-12-22T06:27:55.617Z,100446.09
2022-12-22T06:30:27.405Z,100444.28
2022-12-22T06:32:57.882Z,100396.25
2022-12-22T06:35:24.395Z,100424.44
2022-12-22T06:37:50.899Z,100432.25
2022-12-22T06:40:17.390Z,100439.97
2022-12-22T06:43:08.426Z,100424.41
2022-12-22T06:45:38.026Z,100426.03
2022-12-22T06:48:04.928Z,100430.34
2022-12-22T06:50:31.932Z,100421.78
2022-12-22T06:52:58.496Z,100427.75
2022-12-22T06:55:25.196Z,100423.41
2022-12-22T06:57:51.990Z,100433.66
2022-12-22T07:00:18.864Z,100402.84
2022-12-22T07:02:45.671Z,100434.59
2022-12-22T07:05:12.280Z,100435.50
2022-12-22T07:07:38.828Z,100414.03
2022-12-22T07:10:05.825Z,100420.09
2022-12-22T07:12:32.499Z,100414.22
2022-12-22T07:14:59.253Z,100401.38
2022-12-22T07:17:25.732Z,100419.34
2022-12-22T07:19:52.241Z,100399.63
2022-12-22T07:22:21.638Z,100424.47
2022-12-22T07:24:51.314Z,100417.63
2022-12-22T07:27:17.870Z,100427.94
2022-12-22T07:29:44.693Z,100428.81
2022-12-22T07:32:11.210Z,100416.84
2022-12-22T07:34:37.710Z,100433.88
2022-12-22T07:37:04.219Z,100428.78
2022-12-22T07:39:30.788Z,100427.91
2022-12-22T07:42:15.606Z,100433.84
2022-12-22T07:44:42.071Z,100414.22
2022-12-22T07:47:08.553Z,100420.91
2022-12-22T07:49:53.610Z,100393.66
2022-12-22T07:52:20.196Z,100422.66
2022-12-22T07:54:46.666Z,100422.66
2022-12-22T07:57:13.165Z,100426.03
2022-12-22T07:59:39.714Z,100417.47
2022-12-22T08:02:06.530Z,100381.53
2022-12-22T08:04:33.249Z,100408.81
2022-12-22T08:06:59.912Z,100384.81
2022-12-22T08:09:26.382Z,100395.72
2022-12-22T08:11:52.903Z,100364.00
2022-12-22T08:14:19.414Z,100387.00
2022-12-22T08:16:46.066Z,100361.13
2022-12-22T08:19:12.937Z,100362.81
2022-12-22T08:21:39.429Z,100366.19
2022-12-22T08:24:06.819Z,100340.50
2022-12-22T08:26:41.126Z,100365.28
2022-12-22T08:29:14.056Z,100346.38
2022-12-22T08:31:41.667Z,100344.63
2022-12-22T08:34:10.513Z,100362.66
2022-12-22T08:36:42.039Z,100368.59
2022-12-22T08:39:08.859Z,100366.91
2022-12-22T08:41:51.116Z,100357.38
2022-12-22T08:44:28.998Z,100346.16
2022-12-22T08:46:57.251Z,100367.56
2022-12-22T08:49:24.217Z,100323.91
2022-12-22T08:51:51.492Z,100338.44
2022-12-22T08:54:18.842Z,100358.00
2022-12-22T08:56:45.476Z,100352.81
2022-12-22T08:59:13.288Z,100361.31
2022-12-22T09:01:44.260Z,100358.69
2022-12-22T09:04:16.242Z,100352.63
2022-12-22T09:06:42.857Z,100344.84
2022-12-22T09:09:11.931Z,100352.47
2022-12-22T09:11:40.283Z,100347.22
2022-12-22T09:14:08.613Z,100344.63
2022-12-22T09:16:36.082Z,100344.56
2022-12-22T09:19:03.546Z,100341.00
2022-12-22T09:21:30.767Z,100311.84
2022-12-22T09:23:58.296Z,100347.00
2022-12-22T09:26:28.144Z,100345.22
2022-12-22T09:28:55.524Z,100327.91
2022-12-22T09:31:23.883Z,100340.72
2022-12-22T09:33:51.106Z,100341.50
2022-12-22T09:36:20.807Z,100335.28
2022-12-22T09:38:47.634Z,100324.09
2022-12-22T09:41:24.657Z,100331.66
2022-12-22T09:43:51.378Z,100320.38
2022-12-22T09:46:27.153Z,100322.72
2022-12-22T09:48:54.980Z,100311.28
2022-12-22T09:51:27.202Z,100299.19
2022-12-22T09:53:59.762Z,100301.44
2022-12-22T09:56:28.299Z,100308.59
2022-12-22T09:58:55.015Z,100257.06
2022-12-22T10:01:32.669Z,100295.91
2022-12-22T10:04:36.121Z,100295.63
2022-12-22T10:07:08.684Z,100268.84
2022-12-22T10:09:49.606Z,100282.97
2022-12-22T10:12:20.786Z,100289.56
2022-12-22T10:14:50.459Z,100284.19
2022-12-22T10:17:24.432Z,100255.88
2022-12-22T10:19:54.661Z,100290.72
2022-12-22T10:22:47.161Z,100286.28
2022-12-22T10:25:26.615Z,100285.19
2022-12-22T10:27:59.654Z,100278.25
2022-12-22T10:30:31.459Z,100279.69
2022-12-22T10:33:18.046Z,100282.03
2022-12-22T10:35:54.769Z,100295.53
2022-12-22T10:38:31.575Z,100269.78
2022-12-22T10:41:21.143Z,100284.56
2022-12-22T10:43:51.347Z,100293.72
2022-12-22T10:46:20.325Z,100259.16
2022-12-22T10:48:47.034Z,100273.34
2022-12-22T10:51:15.369Z,100280.81
2022-12-22T10:53:55.512Z,100266.78
2022-12-22T10:56:31.214Z,100275.31
2022-12-22T10:59:17.018Z,100273.28
2022-12-22T11:01:43.583Z,100273.19
2022-12-22T11:04:24.928Z,100273.00
2022-12-22T11:06:53.549Z,100258.94
2022-12-22T11:09:35.963Z,100206.56
2022-12-22T11:12:26.134Z,100241.31
2022-12-22T11:15:04.960Z,100241.03
2022-12-22T11:17:51.864Z,100215.41
2022-12-22T11:20:30.439Z,100230.41
2022-12-22T11:23:15.060Z,100220.94
2022-12-22T11:25:44.530Z,100220.53
2022-12-22T11:28:26.150Z,100226.59
2022-12-22T11:31:15.578Z,100227.22
2022-12-22T11:34:06.803Z,100234.09
2022-12-22T11:36:48.557Z,100242.59
2022-12-22T11:39:20.472Z,100227.88
2022-12-22T11:41:52.861Z,100234.56
2022-12-22T11:44:37.311Z,100224.13
2022-12-22T11:47:19.219Z,100242.97
2022-12-22T11:50:00.273Z,100236.75
2022-12-22T11:52:55.316Z,100231.38
2022-12-22T11:55:44.899Z,100234.00
2022-12-22T11:58:28.888Z,100214.78
2022-12-22T12:01:17.941Z,100214.44
2022-12-22T12:04:07.678Z,100210.81
2022-12-22T12:06:34.115Z,100201.97
2022-12-22T12:09:09.822Z,100199.16
2022-12-22T12:11:43.804Z,100193.75
2022-12-22T12:14:13.218Z,100182.28
2022-12-22T12:16:59.617Z,100173.53
2022-12-22T12:19:44.330Z,100169.88
2022-12-22T12:22:24.727Z,100131.53
2022-12-22T12:25:11.259Z,100179.38
2022-12-22T12:28:21.193Z,100169.94
2022-12-22T12:30:59.843Z,100146.00
2022-12-22T12:33:50.978Z,100168.97
2022-12-22T12:36:40.832Z,100158.56
2022-12-22T12:39:19.520Z,100162.03
2022-12-22T12:41:55.164Z,100155.88
2022-12-22T12:44:27.060Z,100149.09
2022-12-22T12:46:56.116Z,100165.50
2022-12-22T12:49:34.920Z,100151.59
2022-12-22T12:52:08.653Z,100157.63
2022-12-22T12:54:42.979Z,100155.28
2022-12-22T12:57:24.582Z,100151.03
2022-12-22T12:59:53.952Z,100138.75
2022-12-22T13:02:38.254Z,100142.44
2022-12-22T13:05:08.017Z,100152.41
2022-12-22T13:08:05.582Z,100155.78
2022-12-22T13:10:34.345Z,100152.41
2022-12-22T13:13:00.874Z,100138.75
2022-12-22T13:15:33.846Z,100153.94
2022-12-22T13:18:02.887Z,100148.19
2022-12-22T13:20:37.401Z,100132.69
2022-12-22T13:23:14.619Z,100141.13
2022-12-22T13:25:58.831Z,100132.13
2022-12-22T13:28:27.228Z,100092.13
2022-12-22T13:31:01.780Z,100113.97
2022-12-22T13:33:32.181Z,100116.34
2022-12-22T13:35:59.895Z,100093.72
2022-12-22T13:38:33.988Z,100125.75
2022-12-22T13:41:05.145Z,100130.97
2022-12-22T13:43:33.102Z,100121.56
2022-12-22T13:46:02.692Z,100117.38
2022-12-22T13:48:30.640Z,100138.81
2022-12-22T13:51:07.473Z,100114.22
2022-12-22T13:54:06.919Z,100136.44
2022-12-22T13:56:38.397Z,100125.41
2022-12-22T13:59:14.768Z,100110.22
2022-12-22T14:01:52.001Z,100137.50
2022-12-22T14:04:18.672Z,100123.75
2022-12-22T14:06:45.156Z,100130.06
2022-12-22T14:09:17.066Z,100141.81
2022-12-22T14:11:56.519Z,100138.53
2022-12-22T14:14:27.064Z,100124.81
2022-12-22T14:16:59.069Z,100133.19
2022-12-22T14:19:30.206Z,100105.84
2022-12-22T14:22:10.214Z,100115.00
2022-12-22T14:24:54.822Z,100120.31
2022-12-22T14:27:47.031Z,100124.44
2022-12-22T14:30:18.609Z,100122.72
2022-12-22T14:32:54.343Z,100122.72
2022-12-22T14:35:21.723Z,100116.59
2022-12-22T14:38:13.845Z,100110.44
2022-12-22T14:40:43.071Z,100094.94
2022-12-22T14:43:18.807Z,100123.34
2022-12-22T14:45:48.005Z,100127.81
2022-12-22T14:48:49.221Z,100126.28
2022-12-22T14:51:19.861Z,100129.53
2022-12-22T14:53:57.020Z,100128.59
2022-12-22T14:56:25.488Z,100115.00
2022-12-22T14:59:07.099Z,100131.50
2022-12-22T15:01:33.828Z,100133.28
2022-12-22T15:04:04.851Z,100141.03
2022-12-22T15:06:35.829Z,100147.16
2022-12-22T15:09:09.064Z,100141.88
2022-12-22T15:11:38.070Z,100134.34
2022-12-22T15:14:04.935Z,100142.81
2022-12-22T15:16:31.648Z,100141.94
2022-12-22T15:18:58.425Z,100135.00
2022-12-22T15:21:24.916Z,100135.91
2022-12-22T15:23:51.408Z,100133.28
2022-12-22T15:26:17.902Z,100118.78
2022-12-22T15:28:44.376Z,100134.28
2022-12-22T15:31:16.110Z,100142.03
2022-12-22T15:33:43.880Z,100144.66
2022-12-22T15:36:13.010Z,100141.38
2022-12-22T15:38:41.097Z,100143.09
2022-12-22T15:41:07.645Z,100146.59
2022-12-22T15:46:22.379Z,100129.22
2022-12-22T15:48:49.058Z,100129.22
2022-12-22T15:51:24.282Z,100102.88
2022-12-22T15:53:51.331Z,100116.31
2022-12-22T15:56:22.592Z,100131.06
2022-12-22T15:58:49.592Z,100123.47
2022-12-22T16:01:16.186Z,100136.41
2022-12-22T16:03:42.786Z,100130.31
2022-12-22T16:06:14.248Z,100131.19
2022-12-22T16:08:43.153Z,100104.75
2022-12-22T16:11:09.933Z,100122.69
2022-12-22T16:13:37.380Z,100133.91
2022-12-22T16:16:05.049Z,100128.69
2022-12-22T16:18:32.504Z,100111.03
2022-12-22T16:21:07.919Z,100134.09
2022-12-22T16:23:36.761Z,100139.28
2022-12-22T16:26:04.947Z,100129.06
2022-12-22T16:28:32.967Z,100146.28
2022-12-22T16:31:00.514Z,100137.75
2022-12-22T16:33:27.154Z,100158.56
2022-12-22T16:35:53.745Z,100156.88
2022-12-22T16:38:20.391Z,100150.91
2022-12-22T16:40:50.383Z,100131.47
2022-12-22T16:46:15.042Z,100151.09
2022-12-22T16:49:01.492Z,100165.06
2022-12-22T16:51:33.721Z,100167.69
2022-12-22T16:54:01.205Z,100155.19
2022-12-22T16:56:30.417Z,100189.44
2022-12-22T16:58:57.586Z,100183.59
2022-12-22T17:01:44.078Z,100180.16
2022-12-22T17:04:19.309Z,100193.97
2022-12-22T17:06:47.944Z,100186.50
2022-12-22T17:09:19.090Z,100193.41
2022-12-22T17:11:46.891Z,100184.66
2022-12-22T17:14:34.928Z,100196.69
2022-12-22T17:17:01.516Z,100192.56
2022-12-22T17:19:28.042Z,100205.44
2022-12-22T17:21:55.783Z,100199.34
2022-12-22T17:24:28.145Z,100197.66
2022-12-22T17:26:55.139Z,100198.63
2022-12-22T17:29:26.072Z,100199.34
2022-12-22T17:31:56.365Z,100197.59
2022-12-22T17:34:23.240Z,100185.69
2022-12-22T17:36:50.112Z,100189.94
2022-12-22T17:39:19.848Z,100199.47
2022-12-22T17:41:52.213Z,100196.94
2022-12-22T17:44:24.160Z,100214.31
2022-12-22T17:46:50.803Z,100195.63
2022-12-22T17:49:19.802Z,100211.13
2022-12-22T17:51:46.870Z,100220.59
2022-12-22T17:54:31.926Z,100218.06
2022-12-22T17:57:02.285Z,100222.41
2022-12-22T17:59:29.404Z,100222.50
2022-12-22T18:01:56.055Z,100193.47
2022-12-22T18:04:22.638Z,100225.34
2022-12-22T18:06:49.286Z,100209.25
2022-12-22T18:09:21.732Z,100240.94
2022-12-22T18:11:48.605Z,100249.59
2022-12-22T18:14:15.666Z,100254.69
2022-12-22T18:16:43.946Z,100234.44
2022-12-22T18:19:10.559Z,100255.59
2022-12-22T18:21:37.280Z,100258.16
2022-12-22T18:24:04.183Z,100254.81
2022-12-22T18:26:31.180Z,100241.00
2022-12-22T18:28:58.203Z,100250.44
2022-12-22T18:31:25.616Z,100241.06
2022-12-22T18:33:52.693Z,100243.97
2022-12-22T18:36:28.233Z,100214.84
2022-12-22T18:38:55.143Z,100243.16
2022-12-22T18:41:23.659Z,100237.22
2022-12-22T18:43:50.856Z,100251.84
2022-12-22T18:46:18.514Z,100225.50
2022-12-22T18:48:45.168Z,100219.53
2022-12-22T18:51:24.284Z,100237.56
2022-12-22T18:53:52.856Z,100234.25
2022-12-22T18:56:19.506Z,100240.09
2022-12-22T18:58:46.532Z,100238.44
2022-12-22T19:01:20.640Z,100244.69
2022-12-22T19:03:48.347Z,100236.28
2022-12-22T19:06:18.273Z,100267.03
2022-12-22T19:08:47.169Z,100257.41
2022-12-22T19:11:16.448Z,100263.41
2022-12-22T19:13:46.073Z,100268.63
2022-12-22T19:16:25.020Z,100271.03
2022-12-22T19:18:51.666Z,100260.66
2022-12-22T19:21:19.204Z,100270.06
2022-12-22T19:23:46.053Z,100261.44
2022-12-22T19:26:32.827Z,100269.09
2022-12-22T19:29:01.446Z,100278.59
2022-12-22T19:31:34.466Z,100275.16
2022-12-22T19:34:05.222Z,100286.41
2022-12-22T19:36:33.289Z,100281.00
2022-12-22T19:39:04.561Z,100284.38
2022-12-22T19:41:38.575Z,100290.59
2022-12-22T19:44:06.001Z,100273.44
2022-12-22T19:46:34.450Z,100277.50
2022-12-22T19:49:01.085Z,100273.25
2022-12-22T19:51:27.729Z,100256.34
2022-12-22T19:53:54.347Z,100278.59
2022-12-22T19:56:29.849Z,100294.81
2022-12-22T19:58:57.774Z,100287.06
2022-12-22T20:01:24.277Z,100272.53
2022-12-22T20:03:50.890Z,100295.59
2022-12-22T20:06:17.758Z,100276.75
2022-12-22T20:08:44.767Z,100281.84
2022-12-22T20:11:16.920Z,100285.28
2022-12-22T20:13:44.349Z,100263.97
2022-12-22T20:16:15.693Z,100297.31
2022-12-22T20:18:43.254Z,100279.59
2022-12-22T20:21:29.970Z,100299.91
2022-12-22T20:24:00.022Z,100261.50
2022-12-22T20:26:27.611Z,100302.66
2022-12-22T20:28:54.691Z,100311.28
2022-12-22T20:31:24.157Z,100319.03
2022-12-22T20:33:51.372Z,100298.50
2022-12-22T20:36:23.256Z,100325.16
2022-12-22T20:38:52.316Z,100285.09
2022-12-22T20:41:19.866Z,100322.69
2022-12-22T20:43:47.376Z,100302.00
2022-12-22T20:46:15.891Z,100319.09
2022-12-22T20:48:46.794Z,100314.78
2022-12-22T20:51:16.866Z,100323.53
2022-12-22T20:53:44.429Z,100327.84
2022-12-22T20:56:24.176Z,100334.88
2022-12-22T20:58:50.787Z,100332.28
2022-12-22T21:01:18.153Z,100337.50
2022-12-22T21:03:44.935Z,100318.41
2022-12-22T21:06:22.808Z,100324.44
2022-12-22T21:08:49.465Z,100328.97
2022-12-22T21:11:16.235Z,100339.47
2022-12-22T21:13:42.764Z,100321.63
2022-12-22T21:16:16.277Z,100353.25
2022-12-22T21:18:42.914Z,100364.50
2022-12-22T21:21:11.197Z,100359.31
2022-12-22T21:23:38.555Z,100356.75
2022-12-22T21:26:11.675Z,100363.69
2022-12-22T21:28:39.180Z,100354.41
2022-12-22T21:31:05.772Z,100364.75
2022-12-22T21:33:32.427Z,100372.63
2022-12-22T21:36:02.727Z,100382.06
2022-12-22T21:38:32.283Z,100385.59
2022-12-22T21:40:59.077Z,100359.88
2022-12-22T21:43:25.865Z,100366.84
2022-12-22T21:45:52.549Z,100383.19
2022-12-22T21:48:21.154Z,100391.66
2022-12-22T21:50:50.286Z,100400.34
2022-12-22T21:53:22.081Z,100393.44
2022-12-22T21:55:49.547Z,100386.75
2022-12-22T21:58:16.163Z,100398.00
2022-12-22T22:00:47.503Z,100382.84
2022-12-22T22:03:15.347Z,100416.22
2022-12-22T22:05:42.857Z,100417.91
2022-12-22T22:08:12.171Z,100401.56
2022-12-22T22:10:41.826Z,100418.81
2022-12-22T22:13:13.209Z,100413.59
2022-12-22T22:15:39.782Z,100393.94
2022-12-22T22:18:07.422Z,100404.06
2022-12-22T22:20:34.539Z,100399.00
2022-12-22T22:23:01.532Z,100389.53
2022-12-22T22:25:28.196Z,100398.16
2022-12-22T22:27:59.474Z,100389.44
2022-12-22T22:30:26.990Z,100392.09
2022-12-22T22:32:54.880Z,100409.44
2022-12-22T22:35:22.414Z,100406.03
2022-12-22T22:37:51.320Z,100409.44
2022-12-22T22:40:21.402Z,100412.84
2022-12-22T22:42:48.152Z,100387.06
2022-12-22T22:45:16.756Z,100423.28
2022-12-22T22:47:43.236Z,100416.56
2022-12-22T22:50:10.223Z,100418.28
2022-12-22T22:52:38.398Z,100391.16
2022-12-22T22:55:05.301Z,100421.91
2022-12-22T22:57:31.882Z,100427.91
2022-12-22T22:59:58.459Z,100435.75
2022-12-22T23:02:25.313Z,100417.06
2022-12-22T23:04:51.934Z,100423.03
2022-12-22T23:07:18.491Z,100413.56
2022-12-22T23:09:45.143Z,100434.13
2022-12-22T23:12:11.642Z,100431.69
2022-12-22T23:14:38.137Z,100424.94
2022-12-22T23:17:04.985Z,100431.06
2022-12-22T23:19:31.506Z,100409.00
2022-12-22T23:21:58.009Z,100434.78
2022-12-22T23:24:24.559Z,100434.91
2022-12-22T23:26:51.595Z,100440.13
2022-12-22T23:29:18.133Z,100441.06
2022-12-22T23:31:44.753Z,100448.13
2022-12-22T23:34:12.436Z,100452.38
2022-12-22T23:36:38.935Z,100471.59
2022-12-22T23:39:05.832Z,100429.72
2022-12-22T23:41:32.402Z,100479.47
2022-12-22T23:43:59.008Z,100480.34
2022-12-22T23:46:25.646Z,100457.28
2022-12-22T23:48:54.149Z,100469.41
2022-12-22T23:51:22.761Z,100470.38
2022-12-22T23:53:49.279Z,100489.31
2022-12-22T23:56:16.527Z,100499.66
2022-12-22T23:58:43.049Z,100493.78
